Gulf Bridge — A8JM5 — position and weather

sailwx.info

Track history (hours):
 
Tides and Currents Weather Stations Pressure Air Temp Water Temp Dewpoint Dewpoint Depression Visibility Wind Speed Wind Dir Waves Ship Positions

Gulf Bridge

Last reported at 2014-Jul-30 10:33 UTC. Time now 2014-Jul-31 19:34 UTC.
Position S 38°53' E 145°31'.

Length 213 m; beam 32.2 m; draft 11.5 m.

Type: Ship. MMSI: 636091115.

Date/timePositionNaut miles runAvg speedWind from/ knotsBaromVisibWave heightAir tempDewpointWater temp
2014-Jul-30 10:33S 38°53' E 145°31'1010.3
2014-Jul-30 09:33S 38°58' E 145°43'1110.7
2014-Jul-30 08:33S 39°03' E 145°55'1010.6
2014-Jul-30 07:33S 39°08' E 146°07'1010.0
2014-Jul-30 06:33S 39°12' E 146°19'1010.0
2014-Jul-30 05:33S 39°09' E 146°31'1010.0
2014-Jul-30 04:31S 39°05' E 146°43'10 9.9
2014-Jul-30 03:33S 39°02' E 146°55'1010.3
2014-Jul-30 02:33S 38°59' E 147°08'1010.3
2014-Jul-30 01:32S 38°56' E 147°21'12110.1
2014-Jul-29 13:33S 37°57' E 149°35'9 9.5
2014-Jul-29 12:33S 37°51' E 149°44'1010.1
2014-Jul-29 11:33S 37°44' E 149°54'1110.5
2014-Jul-29 10:33S 37°36' E 150°03'1010.3
2014-Jul-29 09:33S 37°27' E 150°08'1110.5
2014-Jul-29 08:33S 37°17' E 150°12'  
Track history (hours):
 
Tides and Currents Weather Stations Pressure Air Temp Water Temp Dewpoint Dewpoint Depression Visibility Wind Speed Wind Dir Waves Ship Positions

Gulf Bridge

Last reported at 2014-Jul-30 10:33 UTC. Time now 2014-Jul-31 19:34 UTC.
Position S 38°53' E 145°31'.

Length 213 m; beam 32.2 m; draft 11.5 m.

Type: Ship. MMSI: 636091115.

Date/timePositionNaut miles runAvg speedWind from/ knotsBaromVisibWave heightAir tempDewpointWater temp
2014-Jul-30 10:33S 38°53' E 145°31'1010.3
2014-Jul-30 09:33S 38°58' E 145°43'1110.7
2014-Jul-30 08:33S 39°03' E 145°55'1010.6
2014-Jul-30 07:33S 39°08' E 146°07'1010.0
2014-Jul-30 06:33S 39°12' E 146°19'1010.0
2014-Jul-30 05:33S 39°09' E 146°31'1010.0
2014-Jul-30 04:31S 39°05' E 146°43'10 9.9
2014-Jul-30 03:33S 39°02' E 146°55'1010.3
2014-Jul-30 02:33S 38°59' E 147°08'1010.3
2014-Jul-30 01:32S 38°56' E 147°21'12110.1
2014-Jul-29 13:33S 37°57' E 149°35'9 9.5
2014-Jul-29 12:33S 37°51' E 149°44'1010.1
2014-Jul-29 11:33S 37°44' E 149°54'1110.5
2014-Jul-29 10:33S 37°36' E 150°03'1010.3
2014-Jul-29 09:33S 37°27' E 150°08'1110.5
2014-Jul-29 08:33S 37°17' E 150°12'  

Dump ship's entire track history